sensor_id;sensor_type;location;lat;lon;timestamp;pressure;altitude;pressure_sealevel;temperature;humidity
52249;BME280;38541;48.130;8.378;2023-03-04T00:01:50;93123.94;;;-1.41;74.46
52249;BME280;38541;48.130;8.378;2023-03-04T00:04:17;93120.53;;;-1.42;75.01
52249;BME280;38541;48.130;8.378;2023-03-04T00:06:43;93115.75;;;-1.45;74.82
52249;BME280;38541;48.130;8.378;2023-03-04T00:09:10;93114.31;;;-1.48;74.88
52249;BME280;38541;48.130;8.378;2023-03-04T00:11:36;93114.16;;;-1.46;75.40
52249;BME280;38541;48.130;8.378;2023-03-04T00:14:02;93117.72;;;-1.47;75.09
52249;BME280;38541;48.130;8.378;2023-03-04T00:16:29;93120.28;;;-1.47;74.91
52249;BME280;38541;48.130;8.378;2023-03-04T00:18:56;93119.31;;;-1.46;75.84
52249;BME280;38541;48.130;8.378;2023-03-04T00:21:23;93117.25;;;-1.51;75.53
52249;BME280;38541;48.130;8.378;2023-03-04T00:23:50;93110.06;;;-1.55;75.57
52249;BME280;38541;48.130;8.378;2023-03-04T00:26:16;93110.88;;;-1.55;75.31
52249;BME280;38541;48.130;8.378;2023-03-04T00:28:44;93114.78;;;-1.59;75.27
52249;BME280;38541;48.130;8.378;2023-03-04T00:31:11;93109.97;;;-1.62;75.81
52249;BME280;38541;48.130;8.378;2023-03-04T00:33:37;93109.34;;;-1.64;75.58
52249;BME280;38541;48.130;8.378;2023-03-04T00:36:05;93115.13;;;-1.62;75.85
52249;BME280;38541;48.130;8.378;2023-03-04T00:38:32;93120.47;;;-1.64;75.93
52249;BME280;38541;48.130;8.378;2023-03-04T00:40:58;93113.19;;;-1.60;76.03
52249;BME280;38541;48.130;8.378;2023-03-04T00:43:25;93108.66;;;-1.58;75.75
52249;BME280;38541;48.130;8.378;2023-03-04T00:45:51;93109.63;;;-1.59;76.04
52249;BME280;38541;48.130;8.378;2023-03-04T00:48:18;93111.75;;;-1.63;75.78
52249;BME280;38541;48.130;8.378;2023-03-04T00:50:44;93106.34;;;-1.68;75.76
52249;BME280;38541;48.130;8.378;2023-03-04T00:53:11;93112.28;;;-1.67;75.51
52249;BME280;38541;48.130;8.378;2023-03-04T00:55:37;93099.75;;;-1.70;75.48
52249;BME280;38541;48.130;8.378;2023-03-04T00:58:03;93107.03;;;-1.74;75.14
52249;BME280;38541;48.130;8.378;2023-03-04T01:00:30;93098.88;;;-1.78;75.93
52249;BME280;38541;48.130;8.378;2023-03-04T01:02:56;93100.63;;;-1.78;75.97
52249;BME280;38541;48.130;8.378;2023-03-04T01:05:23;93102.69;;;-1.74;75.84
52249;BME280;38541;48.130;8.378;2023-03-04T01:07:49;93100.47;;;-1.77;75.84
52249;BME280;38541;48.130;8.378;2023-03-04T01:10:16;93102.69;;;-1.74;75.15
52249;BME280;38541;48.130;8.378;2023-03-04T01:12:43;93094.78;;;-1.87;74.69
52249;BME280;38541;48.130;8.378;2023-03-04T01:15:11;93092.81;;;-1.85;75.15
52249;BME280;38541;48.130;8.378;2023-03-04T01:17:38;93091.31;;;-1.94;74.75
52249;BME280;38541;48.130;8.378;2023-03-04T01:20:06;93093.34;;;-1.90;75.78
52249;BME280;38541;48.130;8.378;2023-03-04T01:22:34;93085.97;;;-1.93;75.72
52249;BME280;38541;48.130;8.378;2023-03-04T01:25:01;93096.09;;;-1.91;75.43
52249;BME280;38541;48.130;8.378;2023-03-04T01:27:27;93085.81;;;-1.91;75.27
52249;BME280;38541;48.130;8.378;2023-03-04T01:29:54;93085.34;;;-1.95;74.76
52249;BME280;38541;48.130;8.378;2023-03-04T01:32:21;93079.41;;;-1.95;74.66
52249;BME280;38541;48.130;8.378;2023-03-04T01:34:48;93079.78;;;-1.98;75.20
52249;BME280;38541;48.130;8.378;2023-03-04T01:37:14;93079.13;;;-2.01;75.86
52249;BME280;38541;48.130;8.378;2023-03-04T01:39:40;93075.78;;;-2.01;75.76
52249;BME280;38541;48.130;8.378;2023-03-04T01:42:17;93071.34;;;-2.07;75.28
52249;BME280;38541;48.130;8.378;2023-03-04T01:44:46;93070.53;;;-2.08;75.67
52249;BME280;38541;48.130;8.378;2023-03-04T01:47:13;93069.75;;;-2.08;75.83
52249;BME280;38541;48.130;8.378;2023-03-04T01:49:40;93062.19;;;-2.10;75.77
52249;BME280;38541;48.130;8.378;2023-03-04T01:52:11;93061.22;;;-2.09;75.67
52249;BME280;38541;48.130;8.378;2023-03-04T01:54:39;93061.38;;;-2.10;75.63
52249;BME280;38541;48.130;8.378;2023-03-04T01:57:15;93059.97;;;-2.13;75.39
52249;BME280;38541;48.130;8.378;2023-03-04T01:59:42;93057.75;;;-2.16;75.33
52249;BME280;38541;48.130;8.378;2023-03-04T02:02:09;93056.47;;;-2.20;75.48
52249;BME280;38541;48.130;8.378;2023-03-04T02:04:35;93054.53;;;-2.18;76.02
52249;BME280;38541;48.130;8.378;2023-03-04T02:07:03;93055.78;;;-2.14;76.60
52249;BME280;38541;48.130;8.378;2023-03-04T02:09:31;93051.94;;;-2.18;76.07
52249;BME280;38541;48.130;8.378;2023-03-04T02:11:58;93051.69;;;-2.23;76.11
52249;BME280;38541;48.130;8.378;2023-03-04T02:14:25;93042.22;;;-2.23;76.81
52249;BME280;38541;48.130;8.378;2023-03-04T02:16:51;93044.47;;;-2.28;76.24
52249;BME280;38541;48.130;8.378;2023-03-04T02:19:34;93044.56;;;-2.36;75.43
52249;BME280;38541;48.130;8.378;2023-03-04T02:22:02;93043.94;;;-2.38;75.97
52249;BME280;38541;48.130;8.378;2023-03-04T02:24:40;93036.69;;;-2.35;75.93
52249;BME280;38541;48.130;8.378;2023-03-04T02:27:08;93026.91;;;-2.39;75.90
52249;BME280;38541;48.130;8.378;2023-03-04T02:29:35;93034.53;;;-2.46;75.44
52249;BME280;38541;48.130;8.378;2023-03-04T02:32:02;93022.81;;;-2.49;75.72
52249;BME280;38541;48.130;8.378;2023-03-04T02:34:33;93026.81;;;-2.46;76.22
52249;BME280;38541;48.130;8.378;2023-03-04T02:37:01;93026.81;;;-2.46;76.74
52249;BME280;38541;48.130;8.378;2023-03-04T02:39:41;93028.78;;;-2.48;76.95
52249;BME280;38541;48.130;8.378;2023-03-04T02:42:09;93029.91;;;-2.51;76.49
52249;BME280;38541;48.130;8.378;2023-03-04T02:44:38;93033.56;;;-2.45;76.23
52249;BME280;38541;48.130;8.378;2023-03-04T02:47:09;93034.69;;;-2.48;76.33
52249;BME280;38541;48.130;8.378;2023-03-04T02:49:38;93031.16;;;-2.47;76.14
52249;BME280;38541;48.130;8.378;2023-03-04T02:52:12;93027.16;;;-2.49;76.01
52249;BME280;38541;48.130;8.378;2023-03-04T02:54:40;93031.50;;;-2.50;76.14
52249;BME280;38541;48.130;8.378;2023-03-04T02:57:09;93034.88;;;-2.49;76.81
52249;BME280;38541;48.130;8.378;2023-03-04T02:59:40;93028.31;;;-2.52;76.18
52249;BME280;38541;48.130;8.378;2023-03-04T03:02:10;93028.19;;;-2.59;76.37
52249;BME280;38541;48.130;8.378;2023-03-04T03:04:38;93032.38;;;-2.58;76.42
52249;BME280;38541;48.130;8.378;2023-03-04T03:07:09;93028.81;;;-2.56;76.85
52249;BME280;38541;48.130;8.378;2023-03-04T03:09:36;93028.19;;;-2.59;76.78
52249;BME280;38541;48.130;8.378;2023-03-04T03:12:03;93027.22;;;-2.58;76.49
52249;BME280;38541;48.130;8.378;2023-03-04T03:14:31;93016.31;;;-2.60;76.04
52249;BME280;38541;48.130;8.378;2023-03-04T03:16:57;93025.81;;;-2.60;75.74
52249;BME280;38541;48.130;8.378;2023-03-04T03:19:24;93024.13;;;-2.68;75.97
52249;BME280;38541;48.130;8.378;2023-03-04T03:21:51;93028.97;;;-2.73;76.03
52249;BME280;38541;48.130;8.378;2023-03-04T03:24:18;93022.91;;;-2.80;75.92
52249;BME280;38541;48.130;8.378;2023-03-04T03:26:45;93029.84;;;-2.81;75.66
52249;BME280;38541;48.130;8.378;2023-03-04T03:29:12;93023.09;;;-2.82;76.13
52249;BME280;38541;48.130;8.378;2023-03-04T03:31:38;93023.88;;;-2.81;76.66
52249;BME280;38541;48.130;8.378;2023-03-04T03:34:05;93023.19;;;-2.75;77.00
52249;BME280;38541;48.130;8.378;2023-03-04T03:36:31;93023.19;;;-2.75;77.25
52249;BME280;38541;48.130;8.378;2023-03-04T03:38:58;93020.81;;;-2.77;77.55
52249;BME280;38541;48.130;8.378;2023-03-04T03:41:24;93028.34;;;-2.75;77.41
52249;BME280;38541;48.130;8.378;2023-03-04T03:43:51;93019.03;;;-2.76;76.80
52249;BME280;38541;48.130;8.378;2023-03-04T03:46:17;93022.41;;;-2.76;77.40
52249;BME280;38541;48.130;8.378;2023-03-04T03:48:44;93025.31;;;-2.79;77.13
52249;BME280;38541;48.130;8.378;2023-03-04T03:51:10;93026.31;;;-2.80;77.13
52249;BME280;38541;48.130;8.378;2023-03-04T03:53:36;93030.97;;;-2.83;77.04
52249;BME280;38541;48.130;8.378;2023-03-04T03:56:03;93026.97;;;-2.86;77.26
52249;BME280;38541;48.130;8.378;2023-03-04T03:58:30;93032.94;;;-2.85;77.37
52249;BME280;38541;48.130;8.378;2023-03-04T04:00:56;93026.81;;;-2.84;77.05
52249;BME280;38541;48.130;8.378;2023-03-04T04:03:24;93029.72;;;-2.88;76.33
52249;BME280;38541;48.130;8.378;2023-03-04T04:05:50;93031.06;;;-2.92;76.36
52249;BME280;38541;48.130;8.378;2023-03-04T04:08:18;93028.03;;;-2.95;76.59
52249;BME280;38541;48.130;8.378;2023-03-04T04:10:44;93030.94;;;-2.98;77.05
52249;BME280;38541;48.130;8.378;2023-03-04T04:13:11;93029.97;;;-2.97;77.67
52249;BME280;38541;48.130;8.378;2023-03-04T04:15:38;93034.91;;;-2.96;77.78
52249;BME280;38541;48.130;8.378;2023-03-04T04:18:05;93028.19;;;-2.97;76.42
52249;BME280;38541;48.130;8.378;2023-03-04T04:20:32;93038.31;;;-2.95;76.46
52249;BME280;38541;48.130;8.378;2023-03-04T04:22:58;93036.88;;;-2.98;76.70
52249;BME280;38541;48.130;8.378;2023-03-04T04:25:25;93044.56;;;-2.98;77.04
52249;BME280;38541;48.130;8.378;2023-03-04T04:27:51;93032.34;;;-2.96;77.40
52249;BME280;38541;48.130;8.378;2023-03-04T04:30:18;93033.94;;;-2.95;77.55
52249;BME280;38541;48.130;8.378;2023-03-04T04:32:44;93031.56;;;-2.96;78.16
52249;BME280;38541;48.130;8.378;2023-03-04T04:35:11;93039.44;;;-2.98;78.12
52249;BME280;38541;48.130;8.378;2023-03-04T04:37:37;93024.00;;;-2.98;78.38
52249;BME280;38541;48.130;8.378;2023-03-04T04:40:04;93037.84;;;-2.99;78.32
52249;BME280;38541;48.130;8.378;2023-03-04T04:42:31;93030.31;;;-3.01;77.48
52249;BME280;38541;48.130;8.378;2023-03-04T04:44:57;93035.00;;;-3.04;77.34
52249;BME280;38541;48.130;8.378;2023-03-04T04:47:23;93033.91;;;-3.10;76.97
52249;BME280;38541;48.130;8.378;2023-03-04T04:49:50;93037.94;;;-3.16;76.96
52249;BME280;38541;48.130;8.378;2023-03-04T04:52:17;93033.63;;;-3.15;77.11
52249;BME280;38541;48.130;8.378;2023-03-04T04:54:43;93034.09;;;-3.11;76.96
52249;BME280;38541;48.130;8.378;2023-03-04T04:57:10;93035.34;;;-3.07;77.36
52249;BME280;38541;48.130;8.378;2023-03-04T04:59:36;93037.28;;;-3.09;77.90
52249;BME280;38541;48.130;8.378;2023-03-04T05:02:03;93038.25;;;-3.10;77.96
52249;BME280;38541;48.130;8.378;2023-03-04T05:04:29;93032.13;;;-3.09;77.66
52249;BME280;38541;48.130;8.378;2023-03-04T05:06:55;93042.22;;;-3.08;77.95
52249;BME280;38541;48.130;8.378;2023-03-04T05:09:22;93041.94;;;-3.13;77.06
52249;BME280;38541;48.130;8.378;2023-03-04T05:11:48;93042.75;;;-3.12;77.20
52249;BME280;38541;48.130;8.378;2023-03-04T05:14:15;93042.75;;;-3.12;77.24
52249;BME280;38541;48.130;8.378;2023-03-04T05:16:41;93034.09;;;-3.11;77.22
52249;BME280;38541;48.130;8.378;2023-03-04T05:19:08;93041.13;;;-3.13;77.31
52249;BME280;38541;48.130;8.378;2023-03-04T05:21:34;93042.56;;;-3.11;77.19
52249;BME280;38541;48.130;8.378;2023-03-04T05:24:01;93040.81;;;-3.10;76.94
52249;BME280;38541;48.130;8.378;2023-03-04T05:26:27;93029.25;;;-3.15;76.88
52249;BME280;38541;48.130;8.378;2023-03-04T05:28:54;93027.66;;;-3.16;76.97
52249;BME280;38541;48.130;8.378;2023-03-04T05:31:20;93036.53;;;-3.18;76.68
52249;BME280;38541;48.130;8.378;2023-03-04T05:33:47;93026.41;;;-3.20;76.84
52249;BME280;38541;48.130;8.378;2023-03-04T05:36:13;93027.22;;;-3.19;76.74
52249;BME280;38541;48.130;8.378;2023-03-04T05:38:39;93028.47;;;-3.15;77.59
52249;BME280;38541;48.130;8.378;2023-03-04T05:41:06;93028.00;;;-3.19;77.96
52249;BME280;38541;48.130;8.378;2023-03-04T05:43:34;93024.81;;;-3.21;77.42
52249;BME280;38541;48.130;8.378;2023-03-04T05:46:02;93037.03;;;-3.23;77.32
52249;BME280;38541;48.130;8.378;2023-03-04T05:48:29;93025.94;;;-3.23;76.98
52249;BME280;38541;48.130;8.378;2023-03-04T05:50:58;93033.84;;;-3.25;77.28
52249;BME280;38541;48.130;8.378;2023-03-04T05:53:24;93039.75;;;-3.24;77.27
52249;BME280;38541;48.130;8.378;2023-03-04T05:55:51;93037.03;;;-3.23;76.95
52249;BME280;38541;48.130;8.378;2023-03-04T05:58:19;93033.50;;;-3.22;77.06
52249;BME280;38541;48.130;8.378;2023-03-04T06:00:46;93035.16;;;-3.29;76.33
52249;BME280;38541;48.130;8.378;2023-03-04T06:03:16;93030.16;;;-3.31;75.94
52249;BME280;38541;48.130;8.378;2023-03-04T06:05:43;93034.19;;;-3.28;75.93
52249;BME280;38541;48.130;8.378;2023-03-04T06:08:11;93036.44;;;-3.33;75.75
52249;BME280;38541;48.130;8.378;2023-03-04T06:10:39;93033.25;;;-3.35;75.41
52249;BME280;38541;48.130;8.378;2023-03-04T06:13:06;93039.06;;;-3.41;75.46
52249;BME280;38541;48.130;8.378;2023-03-04T06:15:32;93037.13;;;-3.39;75.56
52249;BME280;38541;48.130;8.378;2023-03-04T06:17:59;93043.50;;;-3.35;75.80
52249;BME280;38541;48.130;8.378;2023-03-04T06:20:25;93046.44;;;-3.38;75.76
52249;BME280;38541;48.130;8.378;2023-03-04T06:22:51;93047.06;;;-3.36;76.09
52249;BME280;38541;48.130;8.378;2023-03-04T06:25:18;93048.31;;;-3.32;76.15
52249;BME280;38541;48.130;8.378;2023-03-04T06:27:44;93051.19;;;-3.27;76.90
52249;BME280;38541;48.130;8.378;2023-03-04T06:30:11;93054.09;;;-3.30;76.36
52249;BME280;38541;48.130;8.378;2023-03-04T06:32:38;93051.53;;;-3.30;75.73
52249;BME280;38541;48.130;8.378;2023-03-04T06:35:05;93046.69;;;-3.25;76.73
52249;BME280;38541;48.130;8.378;2023-03-04T06:37:32;93051.13;;;-3.19;77.50
52249;BME280;38541;48.130;8.378;2023-03-04T06:39:58;93054.63;;;-3.11;77.65
52249;BME280;38541;48.130;8.378;2023-03-04T06:42:25;93061.03;;;-3.07;77.41
52249;BME280;38541;48.130;8.378;2023-03-04T06:44:51;93057.97;;;-3.03;77.06
52249;BME280;38541;48.130;8.378;2023-03-04T06:47:18;93054.41;;;-3.02;76.73
52249;BME280;38541;48.130;8.378;2023-03-04T06:49:44;93050.69;;;-2.99;76.49
52249;BME280;38541;48.130;8.378;2023-03-04T06:52:11;93050.03;;;-2.93;76.18
52249;BME280;38541;48.130;8.378;2023-03-04T06:54:38;93049.03;;;-2.92;76.74
52249;BME280;38541;48.130;8.378;2023-03-04T06:57:05;93052.69;;;-2.86;77.09
52249;BME280;38541;48.130;8.378;2023-03-04T06:59:32;93047.66;;;-2.79;76.70
52249;BME280;38541;48.130;8.378;2023-03-04T07:01:59;93057.44;;;-2.75;76.40
52249;BME280;38541;48.130;8.378;2023-03-04T07:04:25;93055.66;;;-2.74;76.50
52249;BME280;38541;48.130;8.378;2023-03-04T07:06:52;93061.25;;;-2.70;76.61
52249;BME280;38541;48.130;8.378;2023-03-04T07:09:18;93054.97;;;-2.68;76.54
52249;BME280;38541;48.130;8.378;2023-03-04T07:11:45;93056.69;;;-2.60;76.59
52249;BME280;38541;48.130;8.378;2023-03-04T07:14:11;93061.94;;;-2.53;76.42
52249;BME280;38541;48.130;8.378;2023-03-04T07:16:38;93058.81;;;-2.49;76.20
52249;BME280;38541;48.130;8.378;2023-03-04T07:19:05;93060.53;;;-2.41;76.61
52249;BME280;38541;48.130;8.378;2023-03-04T07:21:32;93072.41;;;-2.40;76.30
52249;BME280;38541;48.130;8.378;2023-03-04T07:23:58;93068.81;;;-2.31;76.90
52249;BME280;38541;48.130;8.378;2023-03-04T07:26:25;93064.41;;;-2.22;76.77
52249;BME280;38541;48.130;8.378;2023-03-04T07:28:51;93059.50;;;-2.17;76.66
52249;BME280;38541;48.130;8.378;2023-03-04T07:31:25;93068.31;;;-2.11;76.77
52249;BME280;38541;48.130;8.378;2023-03-04T07:34:00;93063.41;;;-2.06;77.02
52249;BME280;38541;48.130;8.378;2023-03-04T07:36:27;93067.84;;;-1.99;76.87
52249;BME280;38541;48.130;8.378;2023-03-04T07:38:54;93069.75;;;-1.93;76.94
52249;BME280;38541;48.130;8.378;2023-03-04T07:41:22;93064.69;;;-1.87;77.00
52249;BME280;38541;48.130;8.378;2023-03-04T07:43:49;93059.78;;;-1.81;77.27
52249;BME280;38541;48.130;8.378;2023-03-04T07:46:17;93062.09;;;-1.72;76.84
52249;BME280;38541;48.130;8.378;2023-03-04T07:48:44;93057.66;;;-1.63;77.62
52249;BME280;38541;48.130;8.378;2023-03-04T07:51:17;93058.00;;;-1.51;77.42
52249;BME280;38541;48.130;8.378;2023-03-04T07:53:45;93061.09;;;-1.40;77.57
52249;BME280;38541;48.130;8.378;2023-03-04T07:56:15;93065.69;;;-1.36;77.48
52249;BME280;38541;48.130;8.378;2023-03-04T07:58:42;93065.97;;;-1.31;77.18
52249;BME280;38541;48.130;8.378;2023-03-04T08:01:16;93067.28;;;-1.20;77.25
52249;BME280;38541;48.130;8.378;2023-03-04T08:03:43;93074.66;;;-1.17;77.96
52249;BME280;38541;48.130;8.378;2023-03-04T08:06:12;93070.97;;;-1.07;77.91
52249;BME280;38541;48.130;8.378;2023-03-04T08:08:39;93073.53;;;-0.92;78.12
52249;BME280;38541;48.130;8.378;2023-03-04T08:11:08;93073.22;;;-0.82;78.26
52249;BME280;38541;48.130;8.378;2023-03-04T08:13:35;93067.31;;;-0.76;78.31
52249;BME280;38541;48.130;8.378;2023-03-04T08:16:02;93066.63;;;-0.63;78.75
52249;BME280;38541;48.130;8.378;2023-03-04T08:18:29;93059.19;;;-0.51;78.02
52249;BME280;38541;48.130;8.378;2023-03-04T08:20:55;93065.59;;;-0.47;77.99
52249;BME280;38541;48.130;8.378;2023-03-04T08:23:22;93054.16;;;-0.38;77.92
52249;BME280;38541;48.130;8.378;2023-03-04T08:25:48;93067.34;;;-0.26;78.13
52249;BME280;38541;48.130;8.378;2023-03-04T08:28:16;93058.28;;;-0.15;78.06
52249;BME280;38541;48.130;8.378;2023-03-04T08:30:42;93068.72;;;-0.02;79.09
52249;BME280;38541;48.130;8.378;2023-03-04T08:33:09;93063.44;;;0.13;78.84
52249;BME280;38541;48.130;8.378;2023-03-04T08:35:37;93064.94;;;0.30;78.51
52249;BME280;38541;48.130;8.378;2023-03-04T08:38:05;93066.19;;;0.40;77.83
52249;BME280;38541;48.130;8.378;2023-03-04T08:40:32;93059.47;;;0.53;77.97
52249;BME280;38541;48.130;8.378;2023-03-04T08:42:58;93058.72;;;0.66;77.86
52249;BME280;38541;48.130;8.378;2023-03-04T08:45:25;93060.94;;;0.76;77.26
52249;BME280;38541;48.130;8.378;2023-03-04T08:47:52;93070.75;;;0.87;78.20
52249;BME280;38541;48.130;8.378;2023-03-04T08:50:18;93069.81;;;1.02;78.61
52249;BME280;38541;48.130;8.378;2023-03-04T08:52:47;93071.19;;;1.11;77.78
52249;BME280;38541;48.130;8.378;2023-03-04T08:55:14;93078.00;;;1.25;77.97
52249;BME280;38541;48.130;8.378;2023-03-04T08:57:40;93069.47;;;1.38;78.23
52249;BME280;38541;48.130;8.378;2023-03-04T09:00:07;93072.09;;;1.52;77.70
52249;BME280;38541;48.130;8.378;2023-03-04T09:02:34;93071.50;;;1.63;76.61
52249;BME280;38541;48.130;8.378;2023-03-04T09:05:00;93079.25;;;1.77;75.98
52249;BME280;38541;48.130;8.378;2023-03-04T09:07:26;93074.50;;;1.94;75.16
52249;BME280;38541;48.130;8.378;2023-03-04T09:09:53;93072.88;;;2.06;75.20
52249;BME280;38541;48.130;8.378;2023-03-04T09:12:19;93079.66;;;2.14;74.27
52249;BME280;38541;48.130;8.378;2023-03-04T09:14:46;93071.69;;;2.22;73.95
52249;BME280;38541;48.130;8.378;2023-03-04T09:17:23;93070.84;;;2.35;72.84
52249;BME280;38541;48.130;8.378;2023-03-04T09:19:50;93069.63;;;2.45;72.51
52249;BME280;38541;48.130;8.378;2023-03-04T09:22:16;93075.41;;;2.47;71.74
52249;BME280;38541;48.130;8.378;2023-03-04T09:24:42;93068.81;;;2.58;72.50
52249;BME280;38541;48.130;8.378;2023-03-04T09:27:09;93072.56;;;2.68;72.69
52249;BME280;38541;48.130;8.378;2023-03-04T09:29:35;93066.75;;;2.73;71.34
52249;BME280;38541;48.130;8.378;2023-03-04T09:32:02;93067.13;;;2.83;70.55
52249;BME280;38541;48.130;8.378;2023-03-04T09:34:28;93066.88;;;2.92;70.76
52249;BME280;38541;48.130;8.378;2023-03-04T09:36:55;93065.03;;;3.06;70.21
52249;BME280;38541;48.130;8.378;2023-03-04T09:39:21;93063.00;;;3.14;69.46
52249;BME280;38541;48.130;8.378;2023-03-04T09:41:49;93060.94;;;3.23;68.86
52249;BME280;38541;48.130;8.378;2023-03-04T09:44:27;93053.66;;;3.39;69.04
52249;BME280;38541;48.130;8.378;2023-03-04T09:46:58;93063.19;;;3.52;68.87
52249;BME280;38541;48.130;8.378;2023-03-04T09:49:26;93065.09;;;3.63;68.43
52249;BME280;38541;48.130;8.378;2023-03-04T09:52:01;93063.84;;;3.73;67.16
52249;BME280;38541;48.130;8.378;2023-03-04T09:54:31;93069.59;;;3.75;66.13
52249;BME280;38541;48.130;8.378;2023-03-04T09:57:16;93063.34;;;3.82;65.51
52249;BME280;38541;48.130;8.378;2023-03-04T10:02:46;93058.31;;;4.13;65.16
52249;BME280;38541;48.130;8.378;2023-03-04T10:05:20;93060.19;;;4.24;64.35
52249;BME280;38541;48.130;8.378;2023-03-04T10:10:49;93046.63;;;4.60;63.98
52249;BME280;38541;48.130;8.378;2023-03-04T10:13:28;93053.28;;;4.74;63.18
52249;BME280;38541;48.130;8.378;2023-03-04T10:15:58;93048.38;;;4.84;62.95
52249;BME280;38541;48.130;8.378;2023-03-04T10:18:32;93047.75;;;5.01;63.19
52249;BME280;38541;48.130;8.378;2023-03-04T10:21:03;93048.34;;;5.03;62.04
52249;BME280;38541;48.130;8.378;2023-03-04T10:23:33;93044.31;;;5.19;62.04
52249;BME280;38541;48.130;8.378;2023-03-04T10:26:11;93045.84;;;5.27;61.13
52249;BME280;38541;48.130;8.378;2023-03-04T10:28:38;93050.94;;;5.34;60.87
52249;BME280;38541;48.130;8.378;2023-03-04T10:33:36;93055.47;;;5.38;58.71
52249;BME280;38541;48.130;8.378;2023-03-04T10:38:36;93040.44;;;5.40;57.91
52249;BME280;38541;48.130;8.378;2023-03-04T10:41:20;93041.50;;;5.51;56.79
52249;BME280;38541;48.130;8.378;2023-03-04T10:44:11;93044.13;;;5.63;57.54
52249;BME280;38541;48.130;8.378;2023-03-04T10:46:41;93048.47;;;5.93;57.92
52249;BME280;38541;48.130;8.378;2023-03-04T10:49:09;93043.38;;;5.98;56.94
52249;BME280;38541;48.130;8.378;2023-03-04T10:51:52;93048.28;;;6.07;55.64
52249;BME280;38541;48.130;8.378;2023-03-04T10:54:30;93047.81;;;6.34;56.58
52249;BME280;38541;48.130;8.378;2023-03-04T10:57:04;93047.63;;;6.23;55.23
52249;BME280;38541;48.130;8.378;2023-03-04T11:02:21;93044.88;;;6.42;54.36
52249;BME280;38541;48.130;8.378;2023-03-04T11:04:53;93033.41;;;6.43;54.95
52249;BME280;38541;48.130;8.378;2023-03-04T11:07:22;93038.63;;;6.43;53.62
52249;BME280;38541;48.130;8.378;2023-03-04T11:09:48;93033.31;;;6.38;54.46
52249;BME280;38541;48.130;8.378;2023-03-04T11:12:19;93037.50;;;6.51;53.35
52249;BME280;38541;48.130;8.378;2023-03-04T11:14:48;93036.09;;;6.72;53.76
52249;BME280;38541;48.130;8.378;2023-03-04T11:19:47;93035.34;;;6.60;49.97
52249;BME280;38541;48.130;8.378;2023-03-04T11:22:16;93036.56;;;6.69;51.89
52249;BME280;38541;48.130;8.378;2023-03-04T11:24:44;93033.94;;;6.69;50.98
52249;BME280;38541;48.130;8.378;2023-03-04T11:29:54;93025.81;;;6.30;49.70
52249;BME280;38541;48.130;8.378;2023-03-04T11:32:26;93026.66;;;6.71;49.23
52249;BME280;38541;48.130;8.378;2023-03-04T11:34:57;93016.34;;;6.76;47.40
52249;BME280;38541;48.130;8.378;2023-03-04T11:37:32;93011.75;;;6.54;47.09
52249;BME280;38541;48.130;8.378;2023-03-04T11:40:07;93021.44;;;6.71;46.93
52249;BME280;38541;48.130;8.378;2023-03-04T11:50:53;93000.75;;;7.22;41.37
52249;BME280;38541;48.130;8.378;2023-03-04T11:53:36;93000.91;;;7.33;39.71
52249;BME280;38541;48.130;8.378;2023-03-04T11:56:14;92983.78;;;7.25;39.87
52249;BME280;38541;48.130;8.378;2023-03-04T11:58:59;92994.22;;;7.54;39.44
52249;BME280;38541;48.130;8.378;2023-03-04T12:01:39;92986.84;;;7.51;37.20
52249;BME280;38541;48.130;8.378;2023-03-04T12:12:21;92986.63;;;7.69;36.61
52249;BME280;38541;48.130;8.378;2023-03-04T12:20:55;92962.38;;;8.13;37.60
52249;BME280;38541;48.130;8.378;2023-03-04T12:24:00;92964.94;;;8.25;36.59
52249;BME280;38541;48.130;8.378;2023-03-04T12:29:33;92952.78;;;8.19;37.18
52249;BME280;38541;48.130;8.378;2023-03-04T12:43:25;92937.78;;;8.76;37.24
52249;BME280;38541;48.130;8.378;2023-03-04T12:46:06;92940.47;;;8.81;35.83
52249;BME280;38541;48.130;8.378;2023-03-04T12:48:38;92925.13;;;8.68;33.52
52249;BME280;38541;48.130;8.378;2023-03-04T12:51:22;92931.34;;;8.62;33.71
52249;BME280;38541;48.130;8.378;2023-03-04T12:56:53;92928.84;;;8.72;35.62
52249;BME280;38541;48.130;8.378;2023-03-04T12:59:22;92923.28;;;8.91;34.97
52249;BME280;38541;48.130;8.378;2023-03-04T13:04:36;92924.25;;;9.39;34.88
52249;BME280;38541;48.130;8.378;2023-03-04T13:07:20;92923.03;;;9.20;33.91
52249;BME280;38541;48.130;8.378;2023-03-04T13:09:55;92918.19;;;9.39;34.78
52249;BME280;38541;48.130;8.378;2023-03-04T13:12:23;92927.28;;;9.26;33.08
52249;BME280;38541;48.130;8.378;2023-03-04T13:17:41;92929.97;;;9.36;34.61
52249;BME280;38541;48.130;8.378;2023-03-04T13:22:49;92925.56;;;9.42;35.80
52249;BME280;38541;48.130;8.378;2023-03-04T13:43:49;92903.81;;;10.27;34.45
52249;BME280;38541;48.130;8.378;2023-03-04T13:56:37;92908.69;;;10.56;34.14
52249;BME280;38541;48.130;8.378;2023-03-04T14:01:46;92910.81;;;10.65;33.96
52249;BME280;38541;48.130;8.378;2023-03-04T14:04:27;92911.66;;;10.81;34.88
52249;BME280;38541;48.130;8.378;2023-03-04T14:06:57;92909.56;;;10.93;34.03
52249;BME280;38541;48.130;8.378;2023-03-04T14:09:32;92899.88;;;11.25;32.85
52249;BME280;38541;48.130;8.378;2023-03-04T14:12:00;92898.78;;;12.24;32.20
52249;BME280;38541;48.130;8.378;2023-03-04T14:14:35;92891.91;;;13.34;30.35
52249;BME280;38541;48.130;8.378;2023-03-04T14:17:10;92900.28;;;18.34;24.19
52249;BME280;38541;48.130;8.378;2023-03-04T14:19:45;92895.88;;;20.37;21.41
52249;BME280;38541;48.130;8.378;2023-03-04T14:22:29;92908.94;;;20.69;21.75
52249;BME280;38541;48.130;8.378;2023-03-04T14:25:02;92895.13;;;18.06;22.81
52249;BME280;38541;48.130;8.378;2023-03-04T14:27:32;92895.09;;;16.03;26.01
52249;BME280;38541;48.130;8.378;2023-03-04T14:30:04;92898.19;;;16.66;25.86
52249;BME280;38541;48.130;8.378;2023-03-04T14:32:30;92882.56;;;17.97;24.10
52249;BME280;38541;48.130;8.378;2023-03-04T14:35:03;92887.34;;;17.87;23.90
52249;BME280;38541;48.130;8.378;2023-03-04T14:37:47;92887.88;;;17.52;24.63
52249;BME280;38541;48.130;8.378;2023-03-04T14:40:21;92892.34;;;15.75;27.14
52249;BME280;38541;48.130;8.378;2023-03-04T14:42:54;92895.09;;;15.50;27.45
52249;BME280;38541;48.130;8.378;2023-03-04T14:45:22;92881.38;;;16.85;27.21
52249;BME280;38541;48.130;8.378;2023-03-04T14:47:51;92887.06;;;17.06;25.82
52249;BME280;38541;48.130;8.378;2023-03-04T14:50:20;92884.09;;;18.62;24.10